Time;durP1;ratioP1;P1;durP2;ratioP2;P2;SDS_P1;SDS_P2;PMS_P1;PMS_P2;Temp;Humidity;BMP_temperature;BMP_pressure;BME280_temperature;BME280_humidity;BME280_pressure;Samples;Min_cycle;Max_cycle;Signal;HPM_P1;HPM_P2
2023/05/09 00:00:21;;;;;;;32.17;28.88;;;15.50;99.90;;;;;;4958962;28;20463;-79
2023/05/09 00:02:47;;;;;;;32.58;28.90;;;15.40;99.90;;;;;;4958955;28;20086;-79
2023/05/09 00:05:13;;;;;;;31.30;27.85;;;15.40;99.90;;;;;;4943240;28;20404;-78
2023/05/09 00:07:39;;;;;;;28.95;25.98;;;15.40;99.90;;;;;;4943119;28;20047;-78
2023/05/09 00:10:05;;;;;;;27.92;25.02;;;15.40;99.90;;;;;;4958890;28;20109;-78
2023/05/09 00:12:31;;;;;;;27.42;24.52;;;15.30;99.90;;;;;;4958812;28;20046;-79
2023/05/09 00:14:57;;;;;;;26.75;24.02;;;15.20;99.90;;;;;;4958699;28;20046;-78
2023/05/09 00:17:23;;;;;;;25.75;23.02;;;15.10;99.90;;;;;;4942921;28;20404;-78
2023/05/09 00:19:50;;;;;;;25.80;23.17;;;15.10;99.90;;;;;;4958853;28;20138;-79
2023/05/09 00:22:17;;;;;;;24.13;21.70;;;15.10;99.90;;;;;;4958336;28;20517;-79
2023/05/09 00:24:43;;;;;;;24.48;21.98;;;15.00;99.90;;;;;;4958427;28;20133;-79
2023/05/09 00:27:09;;;;;;;23.17;20.77;;;15.00;99.90;;;;;;4958544;28;20134;-79
2023/05/09 00:29:35;;;;;;;23.48;20.92;;;15.00;99.90;;;;;;4958269;28;20577;-79
2023/05/09 00:32:00;;;;;;;23.17;20.77;;;15.00;99.90;;;;;;4958193;28;20066;-78
2023/05/09 00:34:26;;;;;;;21.27;18.98;;;15.00;99.90;;;;;;4926544;28;20047;-79
2023/05/09 00:36:52;;;;;;;20.55;18.45;;;14.90;99.90;;;;;;4942367;28;20065;-79
2023/05/09 00:39:17;;;;;;;19.85;17.80;;;14.90;99.90;;;;;;4958115;28;20097;-79
2023/05/09 00:41:43;;;;;;;19.70;17.60;;;14.90;99.90;;;;;;4942295;28;20054;-79
2023/05/09 00:44:09;;;;;;;19.38;17.27;;;14.90;99.90;;;;;;4942128;28;20051;-78
2023/05/09 00:46:35;;;;;;;19.35;17.35;;;14.90;99.90;;;;;;4958376;28;20506;-79
2023/05/09 00:49:01;;;;;;;19.73;17.65;;;14.90;99.90;;;;;;4926488;28;20050;-79
2023/05/09 00:51:28;;;;;;;16.42;14.73;;;14.90;99.90;;;;;;4942259;28;20046;-79
2023/05/09 00:53:53;;;;;;;16.90;15.02;;;14.80;99.90;;;;;;4942064;28;20434;-79
2023/05/09 00:56:20;;;;;;;19.02;17.02;;;14.80;99.90;;;;;;4942173;28;20053;-79
2023/05/09 00:58:47;;;;;;;18.38;16.35;;;14.80;99.90;;;;;;4942079;28;20051;-79
2023/05/09 01:01:12;;;;;;;17.10;15.40;;;14.80;99.90;;;;;;4942109;28;20054;-79
2023/05/09 01:03:40;;;;;;;16.05;14.35;;;14.80;99.90;;;;;;4957872;28;20377;-78
2023/05/09 01:06:38;;;;;;;15.27;13.68;;;14.70;99.90;;;;;;4957999;28;20055;-79
2023/05/09 01:09:18;;;;;;;16.13;14.43;;;14.70;99.90;;;;;;4957421;28;20058;-79
2023/05/09 01:11:57;;;;;;;16.92;14.95;;;14.80;99.90;;;;;;4957552;28;20050;-78
2023/05/09 01:14:36;;;;;;;13.73;11.93;;;14.70;99.90;;;;;;4958025;28;20160;-77
2023/05/09 01:17:15;;;;;;;13.00;11.60;;;14.70;99.90;;;;;;4957718;28;20573;-79
2023/05/09 01:19:52;;;;;;;15.90;14.23;;;14.70;99.90;;;;;;4957855;28;20506;-78
2023/05/09 01:22:23;;;;;;;18.35;16.05;;;14.70;99.90;;;;;;4957273;28;20054;-77
2023/05/09 01:25:17;;;;;;;17.37;15.57;;;14.70;99.90;;;;;;4957431;28;20407;-78
2023/05/09 01:28:08;;;;;;;18.50;16.60;;;14.60;99.90;;;;;;4957380;28;20407;-78
2023/05/09 01:30:36;;;;;;;19.13;17.02;;;14.50;99.90;;;;;;4941789;28;20050;-79
2023/05/09 01:33:06;;;;;;;17.92;16.05;;;14.50;99.90;;;;;;4957579;28;20097;-78
2023/05/09 01:35:34;;;;;;;18.92;16.88;;;14.50;99.90;;;;;;4941506;28;20062;-78
2023/05/09 01:38:03;;;;;;;19.92;17.83;;;14.50;99.90;;;;;;4957396;28;20062;-78
2023/05/09 01:40:32;;;;;;;20.13;17.73;;;14.50;99.90;;;;;;4957293;28;20495;-79
2023/05/09 01:43:03;;;;;;;19.55;17.52;;;14.50;99.90;;;;;;4957441;28;20054;-78
2023/05/09 01:45:30;;;;;;;20.42;17.50;;;14.60;99.90;;;;;;4958995;28;20062;-78
2023/05/09 01:47:57;;;;;;;18.98;16.98;;;14.70;99.90;;;;;;4945536;28;20062;-78
2023/05/09 01:50:24;;;;;;;18.48;16.42;;;14.80;99.90;;;;;;4961642;28;20185;-78
2023/05/09 01:52:53;;;;;;;19.83;17.70;;;14.80;99.90;;;;;;4961450;28;20058;-78
2023/05/09 01:55:24;;;;;;;18.60;16.60;;;14.80;99.90;;;;;;4960652;28;20065;-78
2023/05/09 01:57:51;;;;;;;19.38;17.38;;;14.80;99.90;;;;;;4961242;28;20137;-78
2023/05/09 02:00:18;;;;;;;19.40;17.40;;;14.80;99.90;;;;;;4961217;28;20050;-78
2023/05/09 02:02:45;;;;;;;20.23;17.98;;;14.70;99.90;;;;;;4977334;28;20137;-78
2023/05/09 02:05:12;;;;;;;19.00;16.95;;;14.60;99.90;;;;;;4961174;28;20043;-77
2023/05/09 02:07:40;;;;;;;19.65;17.55;;;14.50;99.90;;;;;;4945083;28;20055;-78
2023/05/09 02:10:07;;;;;;;20.17;18.02;;;14.50;99.90;;;;;;4945162;28;20047;-78
2023/05/09 02:12:33;;;;;;;21.33;18.85;;;14.50;99.90;;;;;;4960985;28;20055;-77
2023/05/09 02:14:59;;;;;;;20.13;17.98;;;14.50;99.90;;;;;;4944823;28;20097;-77
2023/05/09 02:17:25;;;;;;;20.38;18.30;;;14.40;99.90;;;;;;4961026;28;20475;-77
2023/05/09 02:19:50;;;;;;;20.73;17.73;;;14.50;99.90;;;;;;4929167;28;20078;-77
2023/05/09 02:22:16;;;;;;;21.35;18.00;;;14.50;99.90;;;;;;4960726;28;20062;-78
2023/05/09 02:24:46;;;;;;;21.02;17.67;;;14.40;99.90;;;;;;4960715;28;20047;-77
2023/05/09 02:27:13;;;;;;;20.25;17.58;;;14.40;99.90;;;;;;4945029;28;20479;-77
2023/05/09 02:29:44;;;;;;;20.33;18.23;;;14.50;99.90;;;;;;4944847;28;20129;-77
2023/05/09 02:32:19;;;;;;;22.77;19.73;;;14.40;99.90;;;;;;4960796;28;20050;-78
2023/05/09 02:34:45;;;;;;;21.27;19.08;;;14.30;99.90;;;;;;4944833;28;20046;-77
2023/05/09 02:37:12;;;;;;;22.17;19.05;;;14.30;99.90;;;;;;4944467;28;20484;-78
2023/05/09 02:39:38;;;;;;;21.75;19.45;;;14.20;99.90;;;;;;4944741;28;20395;-78
2023/05/09 02:42:07;;;;;;;20.10;17.92;;;14.20;99.90;;;;;;4944660;28;20403;-78
2023/05/09 02:44:33;;;;;;;20.85;18.42;;;14.30;99.90;;;;;;4944359;28;20046;-78
2023/05/09 02:47:00;;;;;;;20.13;17.98;;;14.30;99.90;;;;;;4944600;28;20483;-78
2023/05/09 02:49:26;;;;;;;22.80;19.83;;;14.30;99.90;;;;;;4960602;28;20051;-77
2023/05/09 02:51:51;;;;;;;21.88;19.58;;;14.30;99.90;;;;;;4912960;28;20050;-78
2023/05/09 02:54:17;;;;;;;20.83;18.35;;;14.30;99.90;;;;;;4944306;28;20053;-77
2023/05/09 02:56:43;;;;;;;21.55;19.13;;;14.30;99.90;;;;;;4944238;28;20255;-77
2023/05/09 02:59:09;;;;;;;22.75;18.60;;;14.30;99.90;;;;;;4960255;28;20059;-78
2023/05/09 03:01:34;;;;;;;22.25;19.85;;;14.30;99.90;;;;;;4928514;28;20431;-77
2023/05/09 03:04:00;;;;;;;23.15;20.30;;;14.30;99.90;;;;;;4975972;28;20055;-78
2023/05/09 03:06:26;;;;;;;22.58;20.13;;;14.20;99.90;;;;;;4944251;28;20372;-78
2023/05/09 03:08:52;;;;;;;17.23;14.95;;;14.20;99.90;;;;;;4960046;28;20097;-77
2023/05/09 03:11:17;;;;;;;18.00;16.20;;;14.10;99.90;;;;;;4927996;28;20050;-78
2023/05/09 03:13:43;;;;;;;21.35;19.08;;;14.20;99.90;;;;;;4959877;28;20098;-77
2023/05/09 03:16:13;;;;;;;23.08;20.63;;;14.20;99.90;;;;;;4960057;28;20150;-78
2023/05/09 03:18:39;;;;;;;25.92;21.80;;;14.30;99.90;;;;;;4959533;28;20043;-78
2023/05/09 03:21:05;;;;;;;24.38;21.52;;;14.30;99.90;;;;;;4959605;28;20105;-78
2023/05/09 03:23:30;;;;;;;24.92;21.63;;;14.30;99.90;;;;;;4959395;28;20404;-78
2023/05/09 03:25:56;;;;;;;26.65;23.73;;;14.30;99.90;;;;;;4959481;28;20062;-78
2023/05/09 03:28:22;;;;;;;25.48;22.63;;;14.30;99.90;;;;;;4959783;28;20093;-78
2023/05/09 03:30:49;;;;;;;27.70;24.10;;;14.30;99.90;;;;;;4959597;28;20054;-78
2023/05/09 03:33:15;;;;;;;31.15;24.50;;;14.20;99.90;;;;;;4943677;28;20074;-77
2023/05/09 03:35:41;;;;;;;27.75;24.75;;;14.30;99.90;;;;;;4959344;28;20492;-78
2023/05/09 03:38:06;;;;;;;29.23;26.08;;;14.30;99.90;;;;;;4959538;28;20042;-78
2023/05/09 03:40:32;;;;;;;29.33;24.75;;;14.30;99.90;;;;;;4959467;28;20421;-78
2023/05/09 03:42:58;;;;;;;29.75;25.65;;;14.20;99.90;;;;;;4959329;28;20396;-78
2023/05/09 03:45:24;;;;;;;28.73;25.63;;;14.20;99.90;;;;;;4943468;28;20054;-78
2023/05/09 03:47:49;;;;;;;30.00;26.67;;;14.20;99.90;;;;;;4927534;28;20058;-78
2023/05/09 03:50:18;;;;;;;30.75;27.30;;;14.20;99.90;;;;;;4928327;28;20051;-78
2023/05/09 03:52:44;;;;;;;31.25;27.52;;;14.20;99.90;;;;;;4911853;28;20054;-79
2023/05/09 03:55:10;;;;;;;29.73;26.55;;;14.20;99.90;;;;;;4943181;28;20051;-79
2023/05/09 03:57:36;;;;;;;31.00;27.63;;;14.10;99.90;;;;;;4942628;28;20039;-78
2023/05/09 04:00:04;;;;;;;30.92;26.98;;;14.10;99.90;;;;;;4959181;28;20043;-78
2023/05/09 04:02:32;;;;;;;31.98;27.95;;;14.20;99.90;;;;;;4959243;28;20057;-78
2023/05/09 04:04:58;;;;;;;32.08;27.48;;;14.20;99.90;;;;;;4958728;28;20050;-78
2023/05/09 04:07:23;;;;;;;30.63;27.30;;;14.30;99.90;;;;;;4958747;28;20062;-78
2023/05/09 04:09:49;;;;;;;32.50;28.65;;;14.30;99.90;;;;;;4942486;28;20558;-78
2023/05/09 04:12:15;;;;;;;32.70;28.25;;;14.30;99.90;;;;;;4958568;28;20055;-78
2023/05/09 04:14:42;;;;;;;34.10;29.73;;;14.30;99.90;;;;;;4942355;28;20078;-78
2023/05/09 04:17:07;;;;;;;31.67;28.13;;;14.20;99.90;;;;;;4926622;28;20043;-78
2023/05/09 04:19:33;;;;;;;32.03;28.48;;;14.20;99.90;;;;;;4958894;28;20055;-78
2023/05/09 04:21:59;;;;;;;31.02;27.63;;;14.20;99.90;;;;;;4942488;28;20059;-78
2023/05/09 04:24:25;;;;;;;32.95;29.02;;;14.30;99.90;;;;;;4926554;28;20059;-78
2023/05/09 04:26:51;;;;;;;32.78;29.25;;;14.30;99.90;;;;;;4942666;28;20050;-78
2023/05/09 04:29:16;;;;;;;31.98;28.48;;;14.30;99.90;;;;;;4942418;28;20054;-77
2023/05/09 04:31:42;;;;;;;32.88;28.98;;;14.30;99.90;;;;;;4958510;28;20471;-78
2023/05/09 04:34:08;;;;;;;32.80;29.23;;;14.30;99.90;;;;;;4942189;28;20475;-78
2023/05/09 04:36:33;;;;;;;34.38;30.40;;;14.30;99.90;;;;;;4942454;28;20098;-78
2023/05/09 04:38:59;;;;;;;35.08;30.17;;;14.30;99.90;;;;;;4958184;28;20384;-78
2023/05/09 04:41:26;;;;;;;34.13;29.50;;;14.30;99.90;;;;;;4942465;28;20447;-78
2023/05/09 04:43:52;;;;;;;36.45;30.92;;;14.40;99.90;;;;;;4942338;28;20376;-77
2023/05/09 04:46:17;;;;;;;34.58;30.52;;;14.40;99.90;;;;;;4942161;28;20058;-77
2023/05/09 04:48:43;;;;;;;36.42;31.30;;;14.40;99.90;;;;;;4942335;28;20491;-77
2023/05/09 04:51:09;;;;;;;36.20;32.25;;;14.40;99.90;;;;;;4942275;28;20089;-77
2023/05/09 04:53:35;;;;;;;35.28;31.42;;;14.30;99.90;;;;;;4942223;28;20049;-77
2023/05/09 04:56:01;;;;;;;36.05;32.03;;;14.30;99.90;;;;;;4957944;28;20435;-78
2023/05/09 04:58:27;;;;;;;39.13;32.42;;;14.30;99.90;;;;;;4942233;28;20061;-78
2023/05/09 05:00:52;;;;;;;38.97;34.05;;;14.40;99.90;;;;;;4957802;28;20059;-77
2023/05/09 05:03:18;;;;;;;37.85;33.03;;;14.40;99.90;;;;;;4957271;28;20050;-78
2023/05/09 05:05:44;;;;;;;38.58;33.83;;;14.40;99.90;;;;;;4926094;28;20134;-77
2023/05/09 05:08:10;;;;;;;40.33;32.53;;;14.50;99.90;;;;;;4942094;28;20078;-77
2023/05/09 05:10:35;;;;;;;36.33;32.28;;;14.50;99.90;;;;;;4957857;28;20093;-77
2023/05/09 05:13:01;;;;;;;34.55;30.70;;;14.60;99.90;;;;;;4957846;28;20526;-77
2023/05/09 05:15:27;;;;;;;35.47;31.05;;;14.70;99.90;;;;;;4941416;28;20126;-77
2023/05/09 05:17:53;;;;;;;37.78;30.48;;;14.80;99.90;;;;;;4941244;28;20091;-77
2023/05/09 05:20:18;;;;;;;34.80;30.58;;;14.80;99.90;;;;;;4956762;28;20046;-77
2023/05/09 05:22:44;;;;;;;36.78;31.40;;;14.90;99.90;;;;;;4957265;28;20063;-77
2023/05/09 05:25:10;;;;;;;40.25;35.20;;;14.90;99.90;;;;;;4941895;28;20055;-77
2023/05/09 05:27:36;;;;;;;42.15;36.17;;;14.90;99.90;;;;;;4941669;28;20053;-77
2023/05/09 05:30:02;;;;;;;43.17;36.55;;;14.80;99.90;;;;;;4957479;28;20479;-77
2023/05/09 05:32:30;;;;;;;42.05;36.22;;;14.80;99.90;;;;;;4957671;28;20062;-77
2023/05/09 05:34:56;;;;;;;40.47;34.90;;;14.80;99.90;;;;;;4941716;28;20047;-77
2023/05/09 05:37:22;;;;;;;42.05;36.17;;;14.90;99.90;;;;;;4941650;28;20043;-77
2023/05/09 05:39:50;;;;;;;38.78;33.35;;;14.90;99.90;;;;;;4957635;28;20395;-78
2023/05/09 05:42:16;;;;;;;39.85;34.30;;;15.00;99.90;;;;;;4957166;28;20093;-77
2023/05/09 05:44:42;;;;;;;40.20;35.75;;;15.00;99.90;;;;;;4957381;28;20082;-77
2023/05/09 05:47:10;;;;;;;39.42;33.97;;;15.00;99.90;;;;;;4925713;28;20078;-77
2023/05/09 05:49:36;;;;;;;43.28;34.47;;;15.10;99.90;;;;;;4925874;28;20055;-77
2023/05/09 05:52:02;;;;;;;39.80;35.17;;;15.10;99.90;;;;;;4941273;28;20127;-78
2023/05/09 05:54:28;;;;;;;43.10;37.50;;;15.10;99.90;;;;;;4941755;28;20101;-77
2023/05/09 05:56:54;;;;;;;45.20;38.47;;;15.10;99.90;;;;;;4957430;28;20511;-77
2023/05/09 05:59:20;;;;;;;44.35;37.03;;;15.10;99.90;;;;;;4957317;28;20043;-78
2023/05/09 06:01:45;;;;;;;43.92;35.90;;;15.00;99.90;;;;;;4957273;28;20051;-78
2023/05/09 06:04:11;;;;;;;42.28;36.45;;;15.10;99.90;;;;;;4956864;28;20507;-78
2023/05/09 06:06:37;;;;;;;40.38;35.90;;;15.10;99.90;;;;;;4941377;28;20053;-78
2023/05/09 06:09:03;;;;;;;39.70;34.58;;;15.10;99.90;;;;;;4922516;29;20075;-78
2023/05/09 06:11:31;;;;;;;39.40;34.13;;;15.10;99.90;;;;;;4948673;28;20038;-78
2023/05/09 06:13:56;;;;;;;39.05;33.97;;;15.10;99.90;;;;;;4937911;29;20043;-77
2023/05/09 06:16:22;;;;;;;41.70;34.40;;;15.10;99.90;;;;;;4922132;29;20138;-78
2023/05/09 06:18:48;;;;;;;38.60;33.60;;;15.10;99.90;;;;;;4906430;29;20055;-78
2023/05/09 06:21:14;;;;;;;34.78;29.27;;;15.10;99.90;;;;;;4921962;29;20064;-77
2023/05/09 06:23:40;;;;;;;37.08;31.90;;;15.20;99.90;;;;;;4921817;29;20051;-77
2023/05/09 06:26:05;;;;;;;37.58;33.13;;;15.20;99.90;;;;;;4922119;29;20079;-78
2023/05/09 06:28:31;;;;;;;38.70;34.08;;;15.30;99.90;;;;;;4937742;29;20055;-77
2023/05/09 06:30:57;;;;;;;37.75;32.38;;;15.20;99.90;;;;;;4922655;29;20063;-78
2023/05/09 06:33:23;;;;;;;37.13;33.10;;;15.20;99.90;;;;;;4941050;29;20484;-77
2023/05/09 06:35:51;;;;;;;38.42;32.33;;;15.30;99.90;;;;;;4925727;29;20051;-78
2023/05/09 06:38:17;;;;;;;39.05;32.40;;;15.30;99.90;;;;;;4941371;29;20058;-77
2023/05/09 06:40:43;;;;;;;39.00;34.05;;;15.40;99.90;;;;;;4940891;29;20051;-77
2023/05/09 06:43:08;;;;;;;39.17;33.70;;;15.50;99.90;;;;;;4954243;28;20043;-77
2023/05/09 06:45:34;;;;;;;37.92;33.35;;;15.50;99.90;;;;;;4960308;28;20057;-78
2023/05/09 06:48:00;;;;;;;36.83;32.38;;;15.60;99.90;;;;;;4959150;28;20055;-77
2023/05/09 06:50:26;;;;;;;38.08;33.58;;;15.60;99.90;;;;;;4942816;28;20046;-77
2023/05/09 06:52:52;;;;;;;36.58;32.67;;;15.60;99.90;;;;;;4925601;28;20047;-77
2023/05/09 06:55:20;;;;;;;37.25;33.30;;;15.60;99.90;;;;;;4928246;28;20043;-78
2023/05/09 06:57:46;;;;;;;36.00;32.00;;;15.60;99.90;;;;;;4960237;28;20047;-78
2023/05/09 07:00:13;;;;;;;36.65;32.10;;;15.60;99.90;;;;;;4960156;28;20133;-77
2023/05/09 07:02:40;;;;;;;37.22;31.98;;;15.70;99.90;;;;;;4959653;28;20050;-78
2023/05/09 07:05:08;;;;;;;37.08;32.05;;;15.70;99.90;;;;;;4959831;28;20051;-77
2023/05/09 07:07:34;;;;;;;36.28;31.90;;;15.70;99.90;;;;;;4959673;28;20130;-78
2023/05/09 07:10:02;;;;;;;34.63;29.63;;;15.70;99.90;;;;;;4959780;28;20055;-79
2023/05/09 07:12:30;;;;;;;38.40;33.13;;;15.70;99.90;;;;;;4960147;28;20046;-78
2023/05/09 07:14:56;;;;;;;39.38;33.67;;;15.70;99.90;;;;;;4944000;28;20483;-78
2023/05/09 07:17:23;;;;;;;39.53;32.00;;;15.70;99.90;;;;;;4959574;28;20138;-78
2023/05/09 07:19:52;;;;;;;41.65;34.30;;;15.70;99.90;;;;;;4959359;28;20043;-78
2023/05/09 07:22:17;;;;;;;38.83;33.08;;;15.60;99.90;;;;;;4959608;28;20055;-78
2023/05/09 07:24:45;;;;;;;39.22;33.33;;;15.70;99.90;;;;;;4959180;28;20046;-78
2023/05/09 07:27:10;;;;;;;42.05;33.88;;;15.60;99.90;;;;;;4943748;28;20138;-78
2023/05/09 07:29:36;;;;;;;42.92;35.13;;;15.60;99.90;;;;;;4959371;28;20129;-78
2023/05/09 07:32:02;;;;;;;42.53;34.00;;;15.60;99.90;;;;;;4976546;28;20051;-77
2023/05/09 07:34:28;;;;;;;45.05;35.40;;;15.60;99.90;;;;;;4959644;28;20051;-78
2023/05/09 07:36:57;;;;;;;43.60;36.55;;;15.60;99.90;;;;;;4943587;28;20435;-78
2023/05/09 07:39:23;;;;;;;47.60;37.30;;;15.60;99.90;;;;;;4943693;28;20058;-77
2023/05/09 07:41:51;;;;;;;49.60;38.95;;;15.60;99.90;;;;;;4958864;28;20121;-78
2023/05/09 07:44:17;;;;;;;47.90;37.20;;;15.60;99.90;;;;;;4958720;28;20471;-78
2023/05/09 07:46:43;;;;;;;42.80;35.17;;;15.60;99.90;;;;;;4959164;28;20050;-78
2023/05/09 07:49:08;;;;;;;44.60;36.30;;;15.70;99.90;;;;;;4959403;28;20047;-78
2023/05/09 07:51:34;;;;;;;46.38;36.90;;;15.80;99.90;;;;;;4942792;28;20411;-79
2023/05/09 07:54:00;;;;;;;41.38;34.40;;;15.90;99.90;;;;;;4959410;28;20047;-78
2023/05/09 07:56:26;;;;;;;41.38;34.13;;;16.00;99.90;;;;;;4943059;28;20050;-78
2023/05/09 07:58:51;;;;;;;44.67;36.25;;;16.10;99.90;;;;;;4943229;28;20055;-78
2023/05/09 08:01:17;;;;;;;46.25;36.58;;;16.10;99.90;;;;;;4943176;28;20047;-78
2023/05/09 08:03:43;;;;;;;46.20;36.60;;;16.10;99.90;;;;;;4958637;28;20046;-78
2023/05/09 08:06:09;;;;;;;44.40;35.90;;;16.10;99.90;;;;;;4942865;28;20047;-78
2023/05/09 08:08:37;;;;;;;45.20;37.17;;;16.10;99.90;;;;;;4959067;28;20058;-77
2023/05/09 08:11:04;;;;;;;50.83;39.47;;;16.20;99.90;;;;;;4959070;28;20055;-78
2023/05/09 08:13:30;;;;;;;46.55;38.08;;;16.20;99.90;;;;;;4958779;28;20117;-78
2023/05/09 08:15:56;;;;;;;46.05;37.45;;;16.30;99.90;;;;;;4942441;28;20051;-78
2023/05/09 08:18:22;;;;;;;46.45;36.72;;;16.40;99.90;;;;;;4942240;28;20043;-78
2023/05/09 08:20:48;;;;;;;47.08;35.72;;;16.50;99.90;;;;;;4942321;28;20146;-78
2023/05/09 08:23:14;;;;;;;46.63;35.45;;;16.60;99.90;;;;;;4942384;28;20063;-78
2023/05/09 08:25:39;;;;;;;44.80;35.22;;;16.70;99.90;;;;;;4958730;28;20053;-78
2023/05/09 08:28:05;;;;;;;47.55;36.85;;;16.80;99.90;;;;;;4958440;28;20055;-78
2023/05/09 08:30:31;;;;;;;50.95;39.22;;;16.90;99.90;;;;;;4926953;28;20125;-78
2023/05/09 08:32:57;;;;;;;47.80;36.40;;;17.00;99.90;;;;;;4926161;28;20057;-79
2023/05/09 08:35:23;;;;;;;45.67;35.05;;;17.00;99.90;;;;;;4958519;28;20059;-78
2023/05/09 08:37:49;;;;;;;48.75;36.60;;;17.10;99.90;;;;;;4942592;28;20499;-78
2023/05/09 08:42:51;;;;;;;49.58;35.75;;;17.10;99.90;;;;;;5061615;23;20091;-77
2023/05/09 08:45:24;;;;;;;45.92;36.33;;;17.10;99.90;;;;;;4977499;28;20042;-78
2023/05/09 08:47:51;;;;;;;47.45;36.40;;;17.10;99.90;;;;;;4977624;28;20395;-78
2023/05/09 08:50:16;;;;;;;46.72;35.33;;;17.10;99.90;;;;;;4977544;28;20490;-78
2023/05/09 08:52:42;;;;;;;49.22;36.83;;;17.10;99.90;;;;;;4961389;28;20157;-78
2023/05/09 08:55:09;;;;;;;45.85;34.58;;;17.20;99.90;;;;;;4977337;28;20092;-87
2023/05/09 09:13:08;;;;;;;44.78;35.05;;;17.80;99.90;;;;;;5235621;23;20516;-75
2023/05/09 09:15:36;;;;;;;43.55;34.45;;;17.70;99.90;;;;;;4977108;28;20050;-75
2023/05/09 09:18:08;;;;;;;44.83;34.83;;;17.70;99.90;;;;;;4975885;28;20054;-75
2023/05/09 09:20:39;;;;;;;44.47;35.10;;;17.70;99.90;;;;;;4977211;28;20078;-75
2023/05/09 09:25:56;;;;;;;44.30;35.42;;;17.70;99.90;;;;;;5126054;23;20054;-74
2023/05/09 09:28:25;;;;;;;46.50;34.13;;;17.80;99.90;;;;;;4973581;28;20478;-75
2023/05/09 09:30:51;;;;;;;45.25;35.25;;;17.90;99.90;;;;;;4959479;28;20050;-74
2023/05/09 09:33:21;;;;;;;48.78;36.53;;;17.90;99.90;;;;;;4977084;28;20375;-75
2023/05/09 09:35:48;;;;;;;46.97;35.47;;;17.80;99.90;;;;;;4977088;28;20105;-76
2023/05/09 09:38:18;;;;;;;46.88;36.35;;;17.90;99.90;;;;;;4976891;28;20062;-77
2023/05/09 09:40:56;;;;;;;48.85;35.60;;;17.90;99.90;;;;;;4994244;28;20367;-77
2023/05/09 09:43:29;;;;;;;46.67;35.67;;;17.80;99.90;;;;;;4993814;28;20141;-77
2023/05/09 09:45:58;;;;;;;44.67;35.95;;;17.80;99.90;;;;;;4975207;28;20054;-77
2023/05/09 09:48:33;;;;;;;49.55;38.53;;;17.80;99.90;;;;;;4960082;28;20133;-77
2023/05/09 09:51:12;;;;;;;44.70;34.67;;;17.80;99.90;;;;;;4976638;28;20494;-77
2023/05/09 09:53:42;;;;;;;47.03;36.97;;;17.90;99.90;;;;;;4976641;28;20050;-77
2023/05/09 09:56:08;;;;;;;45.08;36.30;;;17.90;99.90;;;;;;4976677;28;20058;-76
2023/05/09 09:58:34;;;;;;;48.10;37.97;;;17.90;99.90;;;;;;4976549;28;20402;-76
2023/05/09 10:01:07;;;;;;;49.45;37.45;;;17.80;99.90;;;;;;4976239;28;20188;-75
2023/05/09 10:03:41;;;;;;;49.63;36.97;;;17.80;99.90;;;;;;4960482;28;20121;-76
2023/05/09 10:06:12;;;;;;;49.85;35.90;;;17.80;99.90;;;;;;4977259;28;20393;-77
2023/05/09 10:08:39;;;;;;;52.67;39.47;;;17.80;99.90;;;;;;5262915;23;20757;-77
2023/05/09 10:11:05;;;;;;;53.67;38.83;;;17.70;99.90;;;;;;4976385;28;20549;-78
2023/05/09 10:13:35;;;;;;;50.42;38.67;;;17.60;99.90;;;;;;4992842;28;20046;-77
2023/05/09 10:16:02;;;;;;;55.58;40.08;;;17.60;99.90;;;;;;5222481;23;20077;-78
2023/05/09 10:18:29;;;;;;;54.22;40.17;;;17.60;99.90;;;;;;4964144;28;20437;-78
2023/05/09 10:20:59;;;;;;;57.25;42.33;;;17.50;99.90;;;;;;4979606;28;20133;-78
2023/05/09 10:23:27;;;;;;;57.17;41.25;;;17.50;99.90;;;;;;4980051;28;20093;-78
2023/05/09 10:26:26;;;;;;;56.05;42.10;;;17.50;99.90;;;;;;4951343;28;20135;-78
2023/05/09 10:28:54;;;;;;;58.42;41.75;;;17.50;99.90;;;;;;4849337;28;83816;-78
2023/05/09 10:31:27;;;;;;;54.60;40.58;;;17.80;99.90;;;;;;4960026;28;20066;-78
2023/05/09 10:33:57;;;;;;;53.03;32.65;;;17.90;99.90;;;;;;4960591;28;20066;-75
2023/05/09 10:36:23;;;;;;;57.05;37.58;;;18.10;99.90;;;;;;4954039;28;20050;-76
2023/05/09 10:38:52;;;;;;;53.10;36.92;;;18.20;99.90;;;;;;4959241;28;20085;-76
2023/05/09 11:15:11;;;;;;;66.70;45.15;;;18.70;99.90;;;;;;5667868;23;20062;-89
2023/05/09 11:18:31;;;;;;;73.78;46.28;;;19.00;99.90;;;;;;4916635;29;20031;-89
2023/05/09 11:21:10;;;;;;;75.43;48.80;;;19.10;99.90;;;;;;4919421;29;20055;-90
2023/05/09 11:23:39;;;;;;;72.53;45.20;;;19.20;99.90;;;;;;4940453;29;20058;-90
2023/05/09 11:26:07;;;;;;;77.95;47.85;;;19.40;99.90;;;;;;4939558;29;20106;-89
2023/05/09 11:28:35;;;;;;;75.32;49.35;;;19.50;99.90;;;;;;4944542;29;20050;-90
2023/05/09 11:31:28;;;;;;;78.25;50.60;;;19.60;99.90;;;;;;4942809;29;20047;-90
2023/05/09 11:34:10;;;;;;;72.57;48.05;;;19.70;99.90;;;;;;4950339;28;20126;-90
2023/05/09 11:36:41;;;;;;;77.07;50.58;;;20.00;99.90;;;;;;4971413;29;20106;-89
2023/05/09 11:39:23;;;;;;;73.95;48.20;;;20.00;99.90;;;;;;4956070;29;20047;-89
2023/05/09 11:41:50;;;;;;;78.25;48.80;;;19.90;99.90;;;;;;4955461;29;20470;-88
2023/05/09 11:44:19;;;;;;;65.68;43.00;;;20.00;99.90;;;;;;4937271;29;20079;-90
2023/05/09 11:46:53;;;;;;;76.88;49.58;;;19.90;99.90;;;;;;4969744;29;20082;-88
2023/05/09 11:49:22;;;;;;;70.28;48.90;;;19.80;99.90;;;;;;4878775;29;20482;-87
2023/05/09 11:51:51;;;;;;;65.60;44.38;;;19.60;99.90;;;;;;4880654;29;20049;-88
2023/05/09 11:54:16;;;;;;;69.47;46.10;;;19.60;99.90;;;;;;4876618;29;20085;-86
2023/05/09 11:56:43;;;;;;;73.05;48.90;;;19.50;99.90;;;;;;4847736;29;20088;-90
2023/05/09 11:59:13;;;;;;;75.85;49.63;;;19.40;99.90;;;;;;4878143;29;20064;-86
2023/05/09 12:01:39;;;;;;;73.88;50.40;;;19.20;99.90;;;;;;4867295;29;20127;-86
2023/05/09 12:04:07;;;;;;;77.22;52.15;;;19.30;99.90;;;;;;4868746;29;20429;-87
2023/05/09 12:06:33;;;;;;;74.63;51.38;;;19.00;99.90;;;;;;4867640;29;20036;-87
2023/05/09 12:08:59;;;;;;;88.55;57.78;;;18.80;99.90;;;;;;4884389;29;20052;-88
2023/05/09 12:11:25;;;;;;;98.82;58.72;;;18.80;99.90;;;;;;4867393;29;20044;-85
2023/05/09 12:13:52;;;;;;;95.97;58.05;;;18.70;99.90;;;;;;4835863;29;20052;-78
2023/05/09 12:16:19;;;;;;;88.93;56.92;;;18.40;99.90;;;;;;4866136;29;20135;-85
2023/05/09 12:18:50;;;;;;;91.03;57.08;;;18.40;99.90;;;;;;4865986;29;20245;-84
2023/05/09 12:21:17;;;;;;;87.95;57.90;;;18.30;99.90;;;;;;4918428;29;20414;-84
2023/05/09 12:23:45;;;;;;;93.07;60.97;;;18.20;99.90;;;;;;4923300;29;20043;-84
2023/05/09 12:26:11;;;;;;;92.28;61.03;;;18.10;99.90;;;;;;4923428;29;20130;-86
2023/05/09 12:28:37;;;;;;;93.03;61.70;;;18.10;99.90;;;;;;4922982;28;20477;-84
2023/05/09 12:31:05;;;;;;;95.47;62.53;;;18.10;99.90;;;;;;4938834;29;20043;-83
2023/05/09 12:33:31;;;;;;;90.28;60.10;;;18.20;99.90;;;;;;4939284;29;20047;-85
2023/05/09 12:36:06;;;;;;;90.15;59.20;;;18.30;99.90;;;;;;4938916;29;20167;-84
2023/05/09 12:38:32;;;;;;;79.57;50.38;;;18.50;99.90;;;;;;4939064;29;20398;-83
2023/05/09 12:41:03;;;;;;;81.47;52.53;;;18.70;99.90;;;;;;4939397;29;20047;-84
2023/05/09 12:43:31;;;;;;;82.68;55.67;;;18.70;99.90;;;;;;4925819;29;20097;-83
2023/05/09 12:45:58;;;;;;;81.28;57.30;;;18.60;99.90;;;;;;4907565;29;20047;-84
2023/05/09 12:48:24;;;;;;;79.85;57.25;;;18.60;99.90;;;;;;4907371;29;20050;-83
2023/05/09 12:50:51;;;;;;;80.45;58.47;;;18.60;99.90;;;;;;4938949;29;20039;-84
2023/05/09 12:53:29;;;;;;;86.43;61.78;;;18.50;99.90;;;;;;4939027;29;20069;-84
2023/05/09 12:56:01;;;;;;;80.63;59.45;;;18.60;99.90;;;;;;4939118;29;20542;-85
2023/05/09 12:58:33;;;;;;;;;;;18.60;99.90;;;;;;4923699;29;20047;-84
2023/05/09 13:01:02;;;;;;;82.28;57.05;;;18.70;99.90;;;;;;4907350;29;19962;-83
2023/05/09 13:03:36;;;;;;;73.32;55.67;;;18.80;99.90;;;;;;4954582;29;20078;-82
2023/05/09 13:08:38;;;;;;;65.35;51.10;;;18.90;99.90;;;;;;5843463;23;20062;-83
2023/05/09 13:12:25;;;;;;;70.00;53.03;;;18.90;99.90;;;;;;4973097;28;20058;-84
2023/05/09 13:15:49;;;;;;;65.93;51.55;;;19.00;99.90;;;;;;4904547;29;20047;-83
2023/05/09 13:18:15;;;;;;;61.08;46.70;;;18.90;99.90;;;;;;4887657;29;20110;-83
2023/05/09 13:20:41;;;;;;;61.33;49.85;;;18.80;99.90;;;;;;4924549;28;20039;-83
2023/05/09 13:23:06;;;;;;;67.53;53.20;;;18.80;99.90;;;;;;4925945;28;20125;-84
2023/05/09 13:25:32;;;;;;;67.05;54.50;;;18.70;99.90;;;;;;4926080;28;20466;-84
2023/05/09 13:27:58;;;;;;;67.72;53.65;;;18.70;99.90;;;;;;4942036;28;20034;-82
2023/05/09 13:30:24;;;;;;;72.30;59.88;;;18.70;99.90;;;;;;4941702;28;20038;-83